createdAt,value
2022-07-28T00:00:43.990Z,14.90
2022-07-28T00:03:10.795Z,14.70
2022-07-28T00:05:37.434Z,14.70
2022-07-28T00:08:05.321Z,14.80
2022-07-28T00:10:32.349Z,14.70
2022-07-28T00:12:59.857Z,14.70
2022-07-28T00:15:27.392Z,14.70
2022-07-28T00:17:53.994Z,14.70
2022-07-28T00:20:21.295Z,14.80
2022-07-28T00:22:47.954Z,14.80
2022-07-28T00:25:15.211Z,14.70
2022-07-28T00:27:41.987Z,14.70
2022-07-28T00:30:09.973Z,14.70
2022-07-28T00:32:37.663Z,14.60
2022-07-28T00:35:05.001Z,14.50
2022-07-28T00:37:35.008Z,14.50
2022-07-28T00:40:02.056Z,14.60
2022-07-28T00:42:28.696Z,14.50
2022-07-28T00:44:55.282Z,14.40
2022-07-28T00:47:22.025Z,14.40
2022-07-28T00:49:50.292Z,14.30
2022-07-28T00:52:18.765Z,14.30
2022-07-28T00:54:45.530Z,14.20
2022-07-28T00:57:12.173Z,14.10
2022-07-28T00:59:38.904Z,14.10
2022-07-28T01:02:06.218Z,14.00
2022-07-28T01:04:33.373Z,13.90
2022-07-28T01:07:34.086Z,13.90
2022-07-28T01:10:08.430Z,13.90
2022-07-28T01:12:48.410Z,13.90
2022-07-28T01:15:38.167Z,13.90
2022-07-28T01:18:17.023Z,13.80
2022-07-28T01:20:52.396Z,13.70
2022-07-28T01:23:48.241Z,13.40
2022-07-28T01:26:33.651Z,13.70
2022-07-28T01:29:11.650Z,13.80
2022-07-28T01:31:41.526Z,13.70
2022-07-28T01:34:17.750Z,13.70
2022-07-28T01:36:55.267Z,13.60
2022-07-28T01:39:28.526Z,13.60
2022-07-28T01:41:58.167Z,13.50
2022-07-28T01:44:27.348Z,13.50
2022-07-28T01:46:55.296Z,13.40
2022-07-28T01:49:23.649Z,13.40
2022-07-28T01:51:52.982Z,13.30
2022-07-28T01:54:22.067Z,13.30
2022-07-28T01:56:51.567Z,13.60
2022-07-28T01:59:19.470Z,13.30
2022-07-28T02:01:47.015Z,13.30
2022-07-28T02:04:18.199Z,13.20
2022-07-28T02:06:47.039Z,13.10
2022-07-28T02:09:14.168Z,13.10
2022-07-28T02:11:42.998Z,13.20
2022-07-28T02:14:12.082Z,13.20
2022-07-28T02:16:44.217Z,13.40
2022-07-28T02:19:12.450Z,13.10
2022-07-28T02:21:41.787Z,13.10
2022-07-28T02:24:10.749Z,13.10
2022-07-28T02:26:42.171Z,13.00
2022-07-28T02:29:33.537Z,13.10
2022-07-28T02:32:15.013Z,13.10
2022-07-28T02:34:55.366Z,13.10
2022-07-28T02:37:23.509Z,13.10
2022-07-28T02:39:58.677Z,13.10
2022-07-28T02:42:30.722Z,13.10
2022-07-28T02:45:03.909Z,13.20
2022-07-28T02:47:34.822Z,12.90
2022-07-28T02:50:04.036Z,13.20
2022-07-28T02:52:32.827Z,13.20
2022-07-28T02:55:01.084Z,13.10
2022-07-28T02:57:29.167Z,13.00
2022-07-28T02:59:56.326Z,13.00
2022-07-28T03:02:23.830Z,13.00
2022-07-28T03:04:58.942Z,13.00
2022-07-28T03:07:27.928Z,13.00
2022-07-28T03:09:54.742Z,13.00
2022-07-28T03:12:21.376Z,12.90
2022-07-28T03:14:49.015Z,12.80
2022-07-28T03:17:15.886Z,12.80
2022-07-28T03:19:42.834Z,12.20
2022-07-28T03:22:10.218Z,12.80
2022-07-28T03:24:41.861Z,12.70
2022-07-28T03:27:26.472Z,12.70
2022-07-28T03:30:03.412Z,12.80
2022-07-28T03:32:34.277Z,12.80
2022-07-28T03:35:01.272Z,12.80
2022-07-28T03:37:34.219Z,12.90
2022-07-28T03:40:01.339Z,12.80
2022-07-28T03:42:30.514Z,12.80
2022-07-28T03:44:57.247Z,12.80
2022-07-28T03:47:24.881Z,12.70
2022-07-28T03:49:51.793Z,12.70
2022-07-28T03:52:18.977Z,12.70
2022-07-28T03:54:45.951Z,12.70
2022-07-28T03:57:13.897Z,12.80
2022-07-28T03:59:40.556Z,12.90
2022-07-28T04:02:07.181Z,13.00
2022-07-28T04:04:33.975Z,12.70
2022-07-28T04:07:00.588Z,13.00
2022-07-28T04:09:27.346Z,13.00
2022-07-28T04:11:53.989Z,13.00
2022-07-28T04:14:20.860Z,13.00
2022-07-28T04:16:47.800Z,13.00
2022-07-28T04:19:14.533Z,13.10
2022-07-28T04:21:41.512Z,13.10
2022-07-28T04:24:10.606Z,13.30
2022-07-28T04:26:37.673Z,13.30
2022-07-28T04:29:04.353Z,11.70
2022-07-28T04:31:31.232Z,13.30
2022-07-28T04:33:58.026Z,13.40
2022-07-28T04:36:25.836Z,13.70
2022-07-28T04:38:52.546Z,13.30
2022-07-28T04:41:19.213Z,13.50
2022-07-28T04:43:45.787Z,13.50
2022-07-28T04:46:15.131Z,13.60
2022-07-28T04:48:42.235Z,13.60
2022-07-28T04:51:08.933Z,13.60
2022-07-28T04:53:35.881Z,13.40
2022-07-28T04:56:02.884Z,13.70
2022-07-28T04:58:30.885Z,13.70
2022-07-28T05:00:57.775Z,13.70
2022-07-28T05:03:24.479Z,13.80
2022-07-28T05:05:54.176Z,13.80
2022-07-28T05:08:22.701Z,13.90
2022-07-28T05:10:53.931Z,14.10
2022-07-28T05:13:20.567Z,14.10
2022-07-28T05:15:47.245Z,14.20
2022-07-28T05:18:13.836Z,14.30
2022-07-28T05:20:40.447Z,14.30
2022-07-28T05:23:08.382Z,14.20
2022-07-28T05:25:35.022Z,14.40
2022-07-28T05:28:01.598Z,14.40
2022-07-28T05:30:28.255Z,14.60
2022-07-28T05:32:59.127Z,14.60
2022-07-28T05:35:26.306Z,14.60
2022-07-28T05:37:52.912Z,14.70
2022-07-28T05:40:19.681Z,14.90
2022-07-28T05:42:47.810Z,15.00
2022-07-28T05:45:16.785Z,15.10
2022-07-28T05:47:49.976Z,15.30
2022-07-28T05:50:17.712Z,15.30
2022-07-28T05:52:45.367Z,15.40
2022-07-28T05:55:12.294Z,15.50
2022-07-28T05:57:39.912Z,15.60
2022-07-28T06:00:09.013Z,15.70
2022-07-28T06:02:35.927Z,15.80
2022-07-28T06:05:02.732Z,16.00
2022-07-28T06:07:43.127Z,16.10
2022-07-28T06:10:14.774Z,16.30
2022-07-28T06:12:42.961Z,16.40
2022-07-28T06:15:14.746Z,16.40
2022-07-28T06:17:42.061Z,16.40
2022-07-28T06:20:09.379Z,16.40
2022-07-28T06:22:50.297Z,16.40
2022-07-28T06:25:19.016Z,16.50
2022-07-28T06:27:46.980Z,16.10
2022-07-28T06:30:13.841Z,16.70
2022-07-28T06:32:40.471Z,16.10
2022-07-28T06:35:07.984Z,16.80
2022-07-28T06:37:34.739Z,16.80
2022-07-28T06:40:01.594Z,16.90
2022-07-28T06:42:28.538Z,16.90
2022-07-28T06:44:59.202Z,17.00
2022-07-28T06:47:26.680Z,16.90
2022-07-28T06:49:53.272Z,16.90
2022-07-28T06:52:20.873Z,16.80
2022-07-28T06:54:50.545Z,16.90
2022-07-28T06:57:18.535Z,17.00
2022-07-28T06:59:46.576Z,17.10
2022-07-28T07:02:13.927Z,17.40
2022-07-28T07:04:41.379Z,17.60
2022-07-28T07:07:14.806Z,17.70
2022-07-28T07:09:43.890Z,17.50
2022-07-28T07:12:11.168Z,18.10
2022-07-28T07:14:37.994Z,17.50
2022-07-28T07:17:04.614Z,17.70
2022-07-28T07:19:31.223Z,17.90
2022-07-28T07:21:57.832Z,18.20
2022-07-28T07:24:24.492Z,18.40
2022-07-28T07:26:51.241Z,18.30
2022-07-28T07:29:18.264Z,18.20
2022-07-28T07:31:44.979Z,18.60
2022-07-28T07:34:11.954Z,18.70
2022-07-28T07:36:38.770Z,18.70
2022-07-28T07:39:05.405Z,18.70
2022-07-28T07:41:32.010Z,18.70
2022-07-28T07:43:59.170Z,18.70
2022-07-28T07:46:25.868Z,18.70
2022-07-28T07:48:52.580Z,18.80
2022-07-28T07:51:19.227Z,18.70
2022-07-28T07:53:45.866Z,17.40
2022-07-28T07:56:14.350Z,18.80
2022-07-28T07:58:41.027Z,18.90
2022-07-28T08:01:07.627Z,19.20
2022-07-28T08:03:34.238Z,19.40
2022-07-28T08:06:02.299Z,19.40
2022-07-28T08:08:28.925Z,19.70
2022-07-28T08:10:55.530Z,19.90
2022-07-28T08:13:23.242Z,20.10
2022-07-28T08:15:50.226Z,20.20
2022-07-28T08:18:16.952Z,20.20
2022-07-28T08:20:43.594Z,20.20
2022-07-28T08:23:10.212Z,20.10
2022-07-28T08:25:38.523Z,20.10
2022-07-28T08:28:05.251Z,20.20
2022-07-28T08:30:32.998Z,20.20
2022-07-28T08:33:00.345Z,20.30
2022-07-28T08:35:33.730Z,20.20
2022-07-28T08:38:02.515Z,20.40
2022-07-28T08:40:32.190Z,20.40
2022-07-28T08:43:34.065Z,20.40
2022-07-28T08:46:01.628Z,20.30
2022-07-28T08:48:32.918Z,20.30
2022-07-28T08:51:09.280Z,20.30
2022-07-28T08:53:37.570Z,20.60
2022-07-28T08:56:14.528Z,20.80
2022-07-28T08:58:41.695Z,21.00
2022-07-28T09:01:09.282Z,21.00
2022-07-28T09:03:37.053Z,21.10
2022-07-28T09:06:04.384Z,21.10
2022-07-28T09:08:31.128Z,21.10
2022-07-28T09:10:57.764Z,21.00
2022-07-28T09:13:24.421Z,21.20
2022-07-28T09:15:51.154Z,21.10
2022-07-28T09:18:18.324Z,20.80
2022-07-28T09:20:45.260Z,21.10
2022-07-28T09:23:42.515Z,21.20
2022-07-28T09:26:10.813Z,21.30
2022-07-28T09:28:49.994Z,21.00
2022-07-28T09:31:17.895Z,20.90
2022-07-28T09:34:01.955Z,21.10
2022-07-28T09:36:30.517Z,21.30
2022-07-28T09:38:57.184Z,21.60
2022-07-28T09:41:24.063Z,21.70
2022-07-28T09:43:55.328Z,21.80
2022-07-28T09:46:25.088Z,21.70
2022-07-28T09:48:55.249Z,21.70
2022-07-28T09:51:25.373Z,21.80
2022-07-28T09:53:53.085Z,21.80
2022-07-28T09:56:20.034Z,21.90
2022-07-28T09:58:58.153Z,21.90
2022-07-28T10:01:29.200Z,21.90
2022-07-28T10:04:03.959Z,22.10
2022-07-28T10:06:32.859Z,22.20
2022-07-28T10:09:01.996Z,22.30
2022-07-28T10:11:30.315Z,22.40
2022-07-28T10:14:02.692Z,22.30
2022-07-28T10:16:31.762Z,22.10
2022-07-28T10:19:01.146Z,22.10
2022-07-28T10:21:30.741Z,21.90
2022-07-28T10:24:02.199Z,21.70
2022-07-28T10:26:32.131Z,21.50
2022-07-28T10:29:03.419Z,21.50
2022-07-28T10:31:46.304Z,21.50
2022-07-28T10:34:24.626Z,21.60
2022-07-28T10:36:55.367Z,21.70
2022-07-28T10:39:25.310Z,21.70
2022-07-28T10:41:52.478Z,21.80
2022-07-28T10:44:20.125Z,21.80
2022-07-28T10:46:47.552Z,21.70
2022-07-28T10:49:14.889Z,21.70
2022-07-28T10:52:02.691Z,21.70
2022-07-28T10:54:36.480Z,21.80
2022-07-28T10:57:07.566Z,21.80
2022-07-28T11:00:12.800Z,21.90
2022-07-28T11:02:45.397Z,21.80
2022-07-28T11:05:25.682Z,21.90
2022-07-28T11:07:52.571Z,21.80
2022-07-28T11:10:20.500Z,21.60
2022-07-28T11:12:52.545Z,21.40
2022-07-28T11:15:34.524Z,21.30
2022-07-28T11:18:09.859Z,21.20
2022-07-28T11:20:52.318Z,20.90
2022-07-28T11:23:46.864Z,21.00
2022-07-28T11:26:23.328Z,21.30
2022-07-28T11:29:14.090Z,21.50
2022-07-28T11:31:46.836Z,21.80
2022-07-28T11:34:18.851Z,22.10
2022-07-28T11:37:04.323Z,22.10
2022-07-28T11:39:31.947Z,22.30
2022-07-28T11:42:29.489Z,22.60
2022-07-28T11:45:17.734Z,22.70
2022-07-28T11:47:44.337Z,24.30
2022-07-28T11:50:17.227Z,22.40
2022-07-28T11:52:55.210Z,22.90
2022-07-28T11:55:55.127Z,23.10
2022-07-28T11:58:24.410Z,22.90
2022-07-28T12:01:18.012Z,22.50
2022-07-28T12:03:49.897Z,22.30
2022-07-28T12:06:26.257Z,22.40
2022-07-28T12:08:59.379Z,22.60
2022-07-28T12:11:27.571Z,22.80
2022-07-28T12:14:01.832Z,22.90
2022-07-28T12:16:29.693Z,23.00
2022-07-28T12:18:56.994Z,23.00
2022-07-28T12:21:46.425Z,23.20
2022-07-28T12:24:28.126Z,23.30
2022-07-28T12:26:55.412Z,23.40
2022-07-28T12:29:23.764Z,23.40
2022-07-28T12:31:59.520Z,23.40
2022-07-28T12:34:28.907Z,23.40
2022-07-28T12:37:04.061Z,23.30
2022-07-28T12:39:34.172Z,23.40
2022-07-28T12:42:12.327Z,23.50
2022-07-28T12:44:40.491Z,23.50
2022-07-28T12:47:09.505Z,23.60
2022-07-28T12:49:37.696Z,23.60
2022-07-28T12:52:17.363Z,23.40
2022-07-28T12:54:54.738Z,23.30
2022-07-28T12:57:49.806Z,23.30
2022-07-28T13:00:23.303Z,23.50
2022-07-28T13:02:51.653Z,23.40
2022-07-28T13:05:54.776Z,23.40
2022-07-28T13:08:23.027Z,23.30
2022-07-28T13:10:51.648Z,23.20
2022-07-28T13:13:22.422Z,23.00
2022-07-28T13:16:18.206Z,23.10
2022-07-28T13:18:54.186Z,23.20
2022-07-28T13:21:58.596Z,23.10
2022-07-28T13:24:28.265Z,23.00
2022-07-28T13:26:56.007Z,23.10
2022-07-28T13:29:23.015Z,22.90
2022-07-28T13:31:49.902Z,22.80
2022-07-28T13:34:16.978Z,23.00
2022-07-28T13:36:43.940Z,23.00
2022-07-28T13:39:10.838Z,23.10
2022-07-28T13:41:48.688Z,23.10
2022-07-28T13:44:24.241Z,23.10
2022-07-28T13:46:51.564Z,23.10
2022-07-28T13:49:21.425Z,23.30
2022-07-28T13:51:48.771Z,23.40
2022-07-28T13:54:18.684Z,23.50
2022-07-28T13:56:45.871Z,23.50
2022-07-28T13:59:13.751Z,23.50
2022-07-28T14:01:41.429Z,23.50
2022-07-28T14:04:14.596Z,23.60
2022-07-28T14:06:44.902Z,23.70
2022-07-28T14:09:17.931Z,23.80
2022-07-28T14:11:50.073Z,23.80
2022-07-28T14:14:23.821Z,23.50
2022-07-28T14:16:52.670Z,23.50
2022-07-28T14:19:23.472Z,23.40
2022-07-28T14:22:12.171Z,23.30
2022-07-28T14:24:39.827Z,23.10
2022-07-28T14:27:06.492Z,23.00
2022-07-28T14:29:33.152Z,22.90
2022-07-28T14:31:59.880Z,22.90
2022-07-28T14:34:26.545Z,22.90
2022-07-28T14:36:53.233Z,22.90
2022-07-28T14:39:19.929Z,23.00
2022-07-28T14:41:46.490Z,23.20
2022-07-28T14:44:20.579Z,23.20
2022-07-28T14:46:51.464Z,23.20
2022-07-28T14:49:18.230Z,23.30
2022-07-28T14:51:45.075Z,23.30
2022-07-28T14:54:12.327Z,23.40
2022-07-28T14:56:39.178Z,23.40
2022-07-28T14:59:06.308Z,23.40
2022-07-28T15:01:35.971Z,23.60
2022-07-28T15:04:03.402Z,23.40
2022-07-28T15:06:30.005Z,23.30
2022-07-28T15:08:57.724Z,23.30
2022-07-28T15:11:24.552Z,23.30
2022-07-28T15:13:51.133Z,23.30
2022-07-28T15:16:17.807Z,23.30
2022-07-28T15:18:44.998Z,23.30
2022-07-28T15:21:16.238Z,23.30
2022-07-28T15:23:43.336Z,23.30
2022-07-28T15:26:10.076Z,23.30
2022-07-28T15:28:37.121Z,23.30
2022-07-28T15:31:05.462Z,23.30
2022-07-28T15:33:47.722Z,23.30
2022-07-28T15:36:15.364Z,23.30
2022-07-28T15:38:42.000Z,23.30
2022-07-28T15:41:14.985Z,23.30
2022-07-28T15:43:41.907Z,23.30
2022-07-28T15:46:11.633Z,23.40
2022-07-28T15:48:39.676Z,23.30
2022-07-28T15:51:06.465Z,23.30
2022-07-28T15:53:34.199Z,23.30
2022-07-28T15:56:01.158Z,23.30
2022-07-28T15:58:27.789Z,23.10
2022-07-28T16:00:54.382Z,23.30
2022-07-28T16:03:24.293Z,23.20
2022-07-28T16:05:51.017Z,23.30
2022-07-28T16:08:22.721Z,23.20
2022-07-28T16:10:52.318Z,23.10
2022-07-28T16:13:33.382Z,23.10
2022-07-28T16:16:12.250Z,23.00
2022-07-28T16:18:41.976Z,23.20
2022-07-28T16:21:10.223Z,23.20
2022-07-28T16:23:36.934Z,23.20
2022-07-28T16:26:07.508Z,23.30
2022-07-28T16:28:34.244Z,23.20
2022-07-28T16:31:01.026Z,23.10
2022-07-28T16:33:27.725Z,23.20
2022-07-28T16:35:59.999Z,23.10
2022-07-28T16:38:26.633Z,23.10
2022-07-28T16:40:53.388Z,23.10
2022-07-28T16:43:20.005Z,23.00
2022-07-28T16:45:46.597Z,23.00
2022-07-28T16:48:13.747Z,23.00
2022-07-28T16:50:45.734Z,23.10
2022-07-28T16:53:13.733Z,22.90
2022-07-28T16:55:42.050Z,22.90
2022-07-28T16:58:08.784Z,22.80
2022-07-28T17:00:35.478Z,22.80
2022-07-28T17:03:02.059Z,22.70
2022-07-28T17:05:28.663Z,22.70
2022-07-28T17:07:55.319Z,22.60
2022-07-28T17:10:27.178Z,22.50
2022-07-28T17:12:54.389Z,22.40
2022-07-28T17:15:23.100Z,22.40
2022-07-28T17:17:51.209Z,22.40
2022-07-28T17:20:18.869Z,22.40
2022-07-28T17:22:45.514Z,22.30
2022-07-28T17:27:59.257Z,22.20
2022-07-28T17:30:26.377Z,22.10
2022-07-28T17:32:58.042Z,22.00
2022-07-28T17:35:31.351Z,22.10
2022-07-28T17:37:58.590Z,22.10
2022-07-28T17:40:27.419Z,22.10
2022-07-28T17:42:54.325Z,22.00
2022-07-28T17:45:21.174Z,21.90
2022-07-28T17:47:47.799Z,21.90
2022-07-28T17:50:14.459Z,21.90
2022-07-28T17:52:44.985Z,21.80
2022-07-28T17:55:31.042Z,21.70
2022-07-28T17:58:27.119Z,21.70
2022-07-28T18:01:10.903Z,21.80
2022-07-28T18:03:57.998Z,21.80
2022-07-28T18:06:31.958Z,21.90
2022-07-28T18:09:06.586Z,21.80
2022-07-28T18:11:37.608Z,21.80
2022-07-28T18:14:22.547Z,21.80
2022-07-28T18:16:49.128Z,21.80
2022-07-28T18:19:15.777Z,21.70
2022-07-28T18:21:43.602Z,21.70
2022-07-28T18:24:10.190Z,21.70
2022-07-28T18:26:36.781Z,21.60
2022-07-28T18:29:03.417Z,21.50
2022-07-28T18:31:30.276Z,21.50
2022-07-28T18:33:56.924Z,21.40
2022-07-28T18:36:23.533Z,21.30
2022-07-28T18:38:50.116Z,21.30
2022-07-28T18:41:17.368Z,21.20
2022-07-28T18:43:43.984Z,21.20
2022-07-28T18:46:10.681Z,21.10
2022-07-28T18:48:38.049Z,21.10
2022-07-28T18:51:04.727Z,21.00
2022-07-28T18:53:31.491Z,20.90
2022-07-28T18:55:58.311Z,20.80
2022-07-28T18:58:25.643Z,20.70
2022-07-28T19:00:52.295Z,20.70
2022-07-28T19:03:18.947Z,20.70
2022-07-28T19:05:46.387Z,20.60
2022-07-28T19:08:13.686Z,20.60
2022-07-28T19:10:40.357Z,20.50
2022-07-28T19:13:09.117Z,20.40
2022-07-28T19:15:39.443Z,20.40
2022-07-28T19:18:10.229Z,20.40
2022-07-28T19:20:40.036Z,20.40
2022-07-28T19:23:06.881Z,20.30
2022-07-28T19:25:35.752Z,20.30
2022-07-28T19:28:02.536Z,20.30
2022-07-28T19:30:30.717Z,20.20
2022-07-28T19:32:57.638Z,20.20
2022-07-28T19:35:24.391Z,20.20
2022-07-28T19:37:51.039Z,20.10
2022-07-28T19:40:17.843Z,20.00
2022-07-28T19:42:44.613Z,20.00
2022-07-28T19:45:11.198Z,19.90
2022-07-28T19:47:38.964Z,19.90
2022-07-28T19:50:06.152Z,19.70
2022-07-28T19:52:33.421Z,19.70
2022-07-28T19:55:01.086Z,19.70
2022-07-28T19:57:30.884Z,19.60
2022-07-28T19:59:58.731Z,19.60
2022-07-28T20:02:25.400Z,19.50
2022-07-28T20:04:52.031Z,19.50
2022-07-28T20:07:19.017Z,19.40
2022-07-28T20:09:45.771Z,19.40
2022-07-28T20:12:12.363Z,18.90
2022-07-28T20:14:38.967Z,19.20
2022-07-28T20:17:05.684Z,19.10
2022-07-28T20:19:32.438Z,19.00
2022-07-28T20:21:59.070Z,18.90
2022-07-28T20:24:25.756Z,18.80
2022-07-28T20:26:52.426Z,18.80
2022-07-28T20:29:19.063Z,18.70
2022-07-28T20:31:45.704Z,18.60
2022-07-28T20:34:12.975Z,18.60
2022-07-28T20:36:39.912Z,18.60
2022-07-28T20:39:27.623Z,18.50
2022-07-28T20:41:53.146Z,18.40
2022-07-28T20:44:29.226Z,18.20
2022-07-28T20:46:58.837Z,18.30
2022-07-28T20:49:25.471Z,18.20
2022-07-28T20:51:52.128Z,18.00
2022-07-28T20:54:19.047Z,18.20
2022-07-28T20:56:45.781Z,18.20
2022-07-28T20:59:13.274Z,18.10
2022-07-28T21:01:40.915Z,18.00
2022-07-28T21:04:07.955Z,17.90
2022-07-28T21:06:38.291Z,17.90
2022-07-28T21:09:05.456Z,17.90
2022-07-28T21:11:35.015Z,18.00
2022-07-28T21:14:02.248Z,18.00
2022-07-28T21:16:28.910Z,17.90
2022-07-28T21:18:55.760Z,17.90
2022-07-28T21:21:22.376Z,17.80
2022-07-28T21:23:49.545Z,17.80
2022-07-28T21:26:16.863Z,17.80
2022-07-28T21:29:02.055Z,17.70
2022-07-28T21:31:28.748Z,17.50
2022-07-28T21:33:55.354Z,17.60
2022-07-28T21:36:22.020Z,17.70
2022-07-28T21:38:48.920Z,17.70
2022-07-28T21:41:15.602Z,17.70
2022-07-28T21:43:42.166Z,17.80
2022-07-28T21:46:08.856Z,17.80
2022-07-28T21:48:35.517Z,17.80
2022-07-28T21:51:02.195Z,17.80
2022-07-28T21:53:28.778Z,17.80
2022-07-28T21:55:57.010Z,17.80
2022-07-28T21:58:23.577Z,17.80
2022-07-28T22:00:50.245Z,17.70
2022-07-28T22:03:16.984Z,17.60
2022-07-28T22:05:43.680Z,17.50
2022-07-28T22:08:10.788Z,17.40
2022-07-28T22:10:37.405Z,17.30
2022-07-28T22:13:04.017Z,17.30
2022-07-28T22:15:30.629Z,17.20
2022-07-28T22:17:57.248Z,17.20
2022-07-28T22:20:23.857Z,17.00
2022-07-28T22:22:50.452Z,17.10
2022-07-28T22:25:17.092Z,17.10
2022-07-28T22:27:43.727Z,17.00
2022-07-28T22:30:10.510Z,17.00
2022-07-28T22:32:37.196Z,16.90
2022-07-28T22:35:05.130Z,17.00
2022-07-28T22:37:31.860Z,16.90
2022-07-28T22:39:58.453Z,16.80
2022-07-28T22:42:25.071Z,16.80
2022-07-28T22:44:51.706Z,16.80
2022-07-28T22:47:18.448Z,16.70
2022-07-28T22:49:45.027Z,16.60
2022-07-28T22:52:11.711Z,16.50
2022-07-28T22:54:39.709Z,16.50
2022-07-28T22:57:06.854Z,16.40
2022-07-28T22:59:38.524Z,16.30
2022-07-28T23:02:06.739Z,16.30
2022-07-28T23:04:33.370Z,16.20
2022-07-28T23:07:00.003Z,16.20
2022-07-28T23:09:26.916Z,16.20
2022-07-28T23:11:55.654Z,16.20
2022-07-28T23:14:22.779Z,16.10
2022-07-28T23:16:49.467Z,16.10
2022-07-28T23:19:16.514Z,16.10
2022-07-28T23:21:43.186Z,16.10
2022-07-28T23:24:09.777Z,16.10
2022-07-28T23:26:36.555Z,16.00
2022-07-28T23:29:03.426Z,16.00
2022-07-28T23:31:30.237Z,16.00
2022-07-28T23:33:57.621Z,15.90
2022-07-28T23:36:26.950Z,15.90
2022-07-28T23:38:58.554Z,15.90
2022-07-28T23:41:26.002Z,15.90
2022-07-28T23:43:53.119Z,15.90
2022-07-28T23:46:19.816Z,15.90
2022-07-28T23:48:46.535Z,15.90
2022-07-28T23:51:14.089Z,15.90
2022-07-28T23:53:43.847Z,15.90
2022-07-28T23:56:10.588Z,15.80
2022-07-28T23:58:37.192Z,15.80
